Terminal Aerodrome Forecast
Issued by NWS

Home | Current Version | Previous Version | Text Only | Print | Product List | Glossary On
Versions: 1 2 3 4 5 6 7 8 9 10 11 12 13 14 15 16
746
FTUS42 KTAE 192320
TAFVLD
TAF
KVLD 192320Z 2000/2024 34004KT P6SM FEW060
     FM201000 00000KT 4SM BR SKC
     FM201400 10005KT P6SM SKC=

USA.gov is the U.S. government's official web portal to all federal, state and local government web resources and services.